NCAR-RAP Real-Time Weather Data

Output produced by METARs form (18 February 2018  02:38 UTC)
found at http://weather.rap.ucar.edu/surface/
 
Conditions at: KIND observed 18 February 2018  02:13 UTC
Temperature: 2.2°C (36°F)
Dewpoint: 0.0°C (32°F) [RH = 85%]
Pressure (altimeter): 30.10 inches Hg (1019.4 mb)
Winds: from the WNW (290 degrees) at 20 MPH (17 knots; 8.8 m/s)
gusting to 31 MPH (27 knots; 14.0 m/s)
Visibility: 10 or more miles (16+ km)
Ceiling: 1600 feet AGL
Clouds: broken clouds at 1600 feet AGL
overcast cloud deck at 2400 feet AGL
Present Weather:
SOME DATA ABOVE MAY BE INACCURATE!!!
"$" is an indication the sensor requires maintenance
KIND 180213Z 29017G27KT 10SM BKN016 OVC024 02/00 A3010 RMK AO2 T00220000 $